Manley, Nebraska
Current Conditions -  °F | °C
As of 8:15 AM on Saturday 25 Oct 2014 (Local Time) from KPMV Reporting Station
Clear Clear  
Wind Chill: 49°   Ceiling: Unl
Heat Index: 49°   Visibility: 10mi
Dew Point: 46°   Wind: 0mph
Humidity: 88%   Direction: NA
Pressure: 30.09"   Gusts: NA
Location:  40.92°N, 96.17°W
Report Text: KPMV 251315Z AUTO 00000KT 10SM CLR 09/08 A3009 RMK AO2 T00940075
Loading
Personal Weather Stations






























Interactive Weather Map
Tropical Storm Tracking
New forecast layout! Learn more

10-Day Weather Forecast

Advertisements
Track Severe Weather on mobile